Purvis, Mississippi
Current Conditions -  °F | °C
As of 6:06 PM on Friday 19 Dec 2014 (Local Time) from KHBG Reporting Station
Moderate Rain Moderate Rain  
Wind Chill: 43°   Ceiling: 3200
Heat Index: 47°   Visibility: 6mi
Dew Point: 45°   Wind: 8mph
Humidity: 93%   Direction: 30°NNE
Pressure: 30.15"   Gusts: NA
Location:  31.14°N, 89.41°W
Report Text: KHBG 200006Z AUTO 03007KT 6SM RA BR FEW009 OVC032 08/07 A3015 RMK AO2 P0002 T00830072
Loading
Personal Weather Stations






























Interactive Weather Map New forecast layout! Learn more

10-Day Weather Forecast

Advertisements
Track Severe Weather on mobile